sensor_id;sensor_type;location;lat;lon;timestamp;P1;durP1;ratioP1;P2;durP2;ratioP2
48215;SDS011;34005;48.844;10.098;2024-02-21T00:05:49;14.40;;;4.93;;
48215;SDS011;34005;48.844;10.098;2024-02-21T00:08:17;8.90;;;4.72;;
48215;SDS011;34005;48.844;10.098;2024-02-21T00:10:45;7.82;;;4.13;;
48215;SDS011;34005;48.844;10.098;2024-02-21T00:13:12;12.75;;;5.22;;
48215;SDS011;34005;48.844;10.098;2024-02-21T00:15:40;9.55;;;4.00;;
48215;SDS011;34005;48.844;10.098;2024-02-21T00:18:08;7.68;;;4.57;;
48215;SDS011;34005;48.844;10.098;2024-02-21T00:20:37;8.55;;;4.05;;
48215;SDS011;34005;48.844;10.098;2024-02-21T00:23:06;11.38;;;4.97;;
48215;SDS011;34005;48.844;10.098;2024-02-21T00:25:34;14.55;;;4.20;;
48215;SDS011;34005;48.844;10.098;2024-02-21T00:28:01;7.68;;;4.65;;
48215;SDS011;34005;48.844;10.098;2024-02-21T00:30:29;10.05;;;4.38;;
48215;SDS011;34005;48.844;10.098;2024-02-21T00:32:57;8.40;;;4.28;;
48215;SDS011;34005;48.844;10.098;2024-02-21T00:35:25;14.02;;;5.00;;
48215;SDS011;34005;48.844;10.098;2024-02-21T00:37:52;9.18;;;4.22;;
48215;SDS011;34005;48.844;10.098;2024-02-21T00:40:21;7.47;;;3.55;;
48215;SDS011;34005;48.844;10.098;2024-02-21T00:42:49;10.85;;;4.30;;
48215;SDS011;34005;48.844;10.098;2024-02-21T00:45:17;11.82;;;5.18;;
48215;SDS011;34005;48.844;10.098;2024-02-21T00:47:44;10.20;;;4.32;;
48215;SDS011;34005;48.844;10.098;2024-02-21T00:50:12;11.02;;;4.53;;
48215;SDS011;34005;48.844;10.098;2024-02-21T00:52:40;8.95;;;4.82;;
48215;SDS011;34005;48.844;10.098;2024-02-21T00:55:08;11.23;;;5.03;;
48215;SDS011;34005;48.844;10.098;2024-02-21T00:57:38;13.93;;;5.13;;
48215;SDS011;34005;48.844;10.098;2024-02-21T01:00:06;10.07;;;4.85;;
48215;SDS011;34005;48.844;10.098;2024-02-21T01:02:34;7.30;;;4.93;;
48215;SDS011;34005;48.844;10.098;2024-02-21T01:05:02;8.50;;;4.40;;
48215;SDS011;34005;48.844;10.098;2024-02-21T01:07:30;12.73;;;4.95;;
48215;SDS011;34005;48.844;10.098;2024-02-21T01:09:58;10.52;;;5.40;;
48215;SDS011;34005;48.844;10.098;2024-02-21T01:12:25;8.50;;;4.82;;
48215;SDS011;34005;48.844;10.098;2024-02-21T01:14:54;7.90;;;4.05;;
48215;SDS011;34005;48.844;10.098;2024-02-21T01:17:22;9.52;;;4.30;;
48215;SDS011;34005;48.844;10.098;2024-02-21T01:19:49;8.73;;;4.45;;
48215;SDS011;34005;48.844;10.098;2024-02-21T01:22:17;10.07;;;4.75;;
48215;SDS011;34005;48.844;10.098;2024-02-21T01:24:45;10.82;;;4.70;;
48215;SDS011;34005;48.844;10.098;2024-02-21T01:27:12;15.38;;;6.40;;
48215;SDS011;34005;48.844;10.098;2024-02-21T01:29:40;15.52;;;5.28;;
48215;SDS011;34005;48.844;10.098;2024-02-21T01:32:09;12.35;;;5.70;;
48215;SDS011;34005;48.844;10.098;2024-02-21T01:34:36;10.10;;;4.75;;
48215;SDS011;34005;48.844;10.098;2024-02-21T01:37:04;11.63;;;4.78;;
48215;SDS011;34005;48.844;10.098;2024-02-21T01:39:33;13.32;;;4.50;;
48215;SDS011;34005;48.844;10.098;2024-02-21T01:42:01;9.57;;;4.32;;
48215;SDS011;34005;48.844;10.098;2024-02-21T01:44:29;8.82;;;3.95;;
48215;SDS011;34005;48.844;10.098;2024-02-21T01:46:57;8.27;;;4.05;;
48215;SDS011;34005;48.844;10.098;2024-02-21T01:49:26;11.52;;;4.65;;
48215;SDS011;34005;48.844;10.098;2024-02-21T01:51:53;9.85;;;3.88;;
48215;SDS011;34005;48.844;10.098;2024-02-21T01:54:21;10.48;;;4.00;;
48215;SDS011;34005;48.844;10.098;2024-02-21T01:56:49;8.23;;;3.90;;
48215;SDS011;34005;48.844;10.098;2024-02-21T01:59:18;11.30;;;4.35;;
48215;SDS011;34005;48.844;10.098;2024-02-21T02:01:46;10.85;;;4.00;;
48215;SDS011;34005;48.844;10.098;2024-02-21T02:04:14;6.32;;;3.42;;
48215;SDS011;34005;48.844;10.098;2024-02-21T02:06:43;7.85;;;3.47;;
48215;SDS011;34005;48.844;10.098;2024-02-21T02:09:11;11.60;;;4.35;;
48215;SDS011;34005;48.844;10.098;2024-02-21T02:11:39;11.35;;;4.40;;
48215;SDS011;34005;48.844;10.098;2024-02-21T02:14:06;9.95;;;4.07;;
48215;SDS011;34005;48.844;10.098;2024-02-21T02:16:34;9.85;;;4.15;;
48215;SDS011;34005;48.844;10.098;2024-02-21T02:19:02;5.97;;;3.53;;
48215;SDS011;34005;48.844;10.098;2024-02-21T02:21:30;10.07;;;3.97;;
48215;SDS011;34005;48.844;10.098;2024-02-21T02:24:03;9.35;;;3.58;;
48215;SDS011;34005;48.844;10.098;2024-02-21T02:26:32;12.75;;;4.18;;
48215;SDS011;34005;48.844;10.098;2024-02-21T02:29:01;9.00;;;3.67;;
48215;SDS011;34005;48.844;10.098;2024-02-21T02:31:28;8.98;;;3.70;;
48215;SDS011;34005;48.844;10.098;2024-02-21T02:33:56;5.25;;;3.15;;
48215;SDS011;34005;48.844;10.098;2024-02-21T02:36:24;8.15;;;4.15;;
48215;SDS011;34005;48.844;10.098;2024-02-21T02:38:52;6.75;;;3.05;;
48215;SDS011;34005;48.844;10.098;2024-02-21T02:41:21;5.43;;;3.05;;
48215;SDS011;34005;48.844;10.098;2024-02-21T02:43:48;8.68;;;4.03;;
48215;SDS011;34005;48.844;10.098;2024-02-21T02:46:16;9.65;;;3.38;;
48215;SDS011;34005;48.844;10.098;2024-02-21T02:48:44;5.32;;;2.72;;
48215;SDS011;34005;48.844;10.098;2024-02-21T02:51:12;6.85;;;3.40;;
48215;SDS011;34005;48.844;10.098;2024-02-21T02:53:39;6.47;;;3.03;;
48215;SDS011;34005;48.844;10.098;2024-02-21T02:56:07;13.93;;;3.58;;
48215;SDS011;34005;48.844;10.098;2024-02-21T02:58:42;5.88;;;2.95;;
48215;SDS011;34005;48.844;10.098;2024-02-21T03:01:09;9.15;;;3.28;;
48215;SDS011;34005;48.844;10.098;2024-02-21T03:03:37;9.80;;;3.28;;
48215;SDS011;34005;48.844;10.098;2024-02-21T03:06:05;13.75;;;4.22;;
48215;SDS011;34005;48.844;10.098;2024-02-21T03:08:32;9.70;;;3.30;;
48215;SDS011;34005;48.844;10.098;2024-02-21T03:11:00;13.20;;;4.22;;
48215;SDS011;34005;48.844;10.098;2024-02-21T03:13:28;7.75;;;2.53;;
48215;SDS011;34005;48.844;10.098;2024-02-21T03:15:57;8.27;;;2.85;;
48215;SDS011;34005;48.844;10.098;2024-02-21T03:18:25;10.82;;;3.33;;
48215;SDS011;34005;48.844;10.098;2024-02-21T03:20:53;10.05;;;3.15;;
48215;SDS011;34005;48.844;10.098;2024-02-21T03:23:20;10.60;;;2.92;;
48215;SDS011;34005;48.844;10.098;2024-02-21T03:25:48;7.63;;;3.20;;
48215;SDS011;34005;48.844;10.098;2024-02-21T03:28:16;11.85;;;3.00;;
48215;SDS011;34005;48.844;10.098;2024-02-21T03:30:43;8.85;;;3.47;;
48215;SDS011;34005;48.844;10.098;2024-02-21T03:33:12;6.25;;;2.55;;
48215;SDS011;34005;48.844;10.098;2024-02-21T03:35:40;10.90;;;4.07;;
48215;SDS011;34005;48.844;10.098;2024-02-21T03:38:08;7.90;;;3.45;;
48215;SDS011;34005;48.844;10.098;2024-02-21T03:40:36;7.90;;;3.67;;
48215;SDS011;34005;48.844;10.098;2024-02-21T03:43:03;9.98;;;3.65;;
48215;SDS011;34005;48.844;10.098;2024-02-21T03:45:31;9.02;;;4.82;;
48215;SDS011;34005;48.844;10.098;2024-02-21T03:47:58;9.02;;;4.50;;
48215;SDS011;34005;48.844;10.098;2024-02-21T03:50:30;9.07;;;4.30;;
48215;SDS011;34005;48.844;10.098;2024-02-21T03:52:58;14.93;;;4.55;;
48215;SDS011;34005;48.844;10.098;2024-02-21T03:55:26;9.90;;;3.67;;
48215;SDS011;34005;48.844;10.098;2024-02-21T03:57:53;12.52;;;3.70;;
48215;SDS011;34005;48.844;10.098;2024-02-21T04:00:21;8.45;;;2.95;;
48215;SDS011;34005;48.844;10.098;2024-02-21T04:02:49;8.20;;;3.17;;
48215;SDS011;34005;48.844;10.098;2024-02-21T04:05:17;8.35;;;3.95;;
48215;SDS011;34005;48.844;10.098;2024-02-21T04:07:46;8.82;;;3.05;;
48215;SDS011;34005;48.844;10.098;2024-02-21T04:10:13;7.65;;;2.53;;
48215;SDS011;34005;48.844;10.098;2024-02-21T04:12:41;7.28;;;2.60;;
48215;SDS011;34005;48.844;10.098;2024-02-21T04:15:08;11.57;;;2.90;;
48215;SDS011;34005;48.844;10.098;2024-02-21T04:17:36;7.88;;;2.90;;
48215;SDS011;34005;48.844;10.098;2024-02-21T04:20:05;7.15;;;2.88;;
48215;SDS011;34005;48.844;10.098;2024-02-21T04:22:35;8.55;;;3.10;;
48215;SDS011;34005;48.844;10.098;2024-02-21T04:25:04;7.88;;;2.55;;
48215;SDS011;34005;48.844;10.098;2024-02-21T04:27:32;8.07;;;2.72;;
48215;SDS011;34005;48.844;10.098;2024-02-21T04:30:00;10.88;;;2.70;;
48215;SDS011;34005;48.844;10.098;2024-02-21T04:32:28;6.32;;;2.60;;
48215;SDS011;34005;48.844;10.098;2024-02-21T04:34:55;6.13;;;2.60;;
48215;SDS011;34005;48.844;10.098;2024-02-21T04:37:23;4.82;;;2.33;;
48215;SDS011;34005;48.844;10.098;2024-02-21T04:39:51;7.40;;;2.67;;
48215;SDS011;34005;48.844;10.098;2024-02-21T04:42:20;4.40;;;2.50;;
48215;SDS011;34005;48.844;10.098;2024-02-21T04:44:47;8.73;;;2.60;;
48215;SDS011;34005;48.844;10.098;2024-02-21T04:47:15;13.98;;;3.50;;
48215;SDS011;34005;48.844;10.098;2024-02-21T04:49:42;5.25;;;2.42;;
48215;SDS011;34005;48.844;10.098;2024-02-21T04:52:10;10.73;;;3.35;;
48215;SDS011;34005;48.844;10.098;2024-02-21T04:54:38;14.85;;;4.78;;
48215;SDS011;34005;48.844;10.098;2024-02-21T04:57:06;6.85;;;3.03;;
48215;SDS011;34005;48.844;10.098;2024-02-21T04:59:35;14.52;;;3.42;;
48215;SDS011;34005;48.844;10.098;2024-02-21T05:02:02;9.80;;;3.58;;
48215;SDS011;34005;48.844;10.098;2024-02-21T05:04:30;11.85;;;3.75;;
48215;SDS011;34005;48.844;10.098;2024-02-21T05:06:59;8.27;;;3.90;;
48215;SDS011;34005;48.844;10.098;2024-02-21T05:09:27;8.07;;;3.25;;
48215;SDS011;34005;48.844;10.098;2024-02-21T05:11:55;12.43;;;4.40;;
48215;SDS011;34005;48.844;10.098;2024-02-21T05:14:22;7.47;;;4.45;;
48215;SDS011;34005;48.844;10.098;2024-02-21T05:16:51;9.35;;;4.63;;
48215;SDS011;34005;48.844;10.098;2024-02-21T05:19:19;9.60;;;4.90;;
48215;SDS011;34005;48.844;10.098;2024-02-21T05:21:47;11.95;;;4.35;;
48215;SDS011;34005;48.844;10.098;2024-02-21T05:24:14;10.25;;;4.13;;
48215;SDS011;34005;48.844;10.098;2024-02-21T05:26:42;10.80;;;3.95;;
48215;SDS011;34005;48.844;10.098;2024-02-21T05:29:09;10.18;;;5.13;;
48215;SDS011;34005;48.844;10.098;2024-02-21T05:31:54;10.55;;;4.78;;
48215;SDS011;34005;48.844;10.098;2024-02-21T05:34:24;12.07;;;4.47;;
48215;SDS011;34005;48.844;10.098;2024-02-21T05:36:53;9.23;;;4.20;;
48215;SDS011;34005;48.844;10.098;2024-02-21T05:39:20;11.60;;;5.13;;
48215;SDS011;34005;48.844;10.098;2024-02-21T05:41:49;17.00;;;7.65;;
48215;SDS011;34005;48.844;10.098;2024-02-21T05:44:18;15.85;;;6.68;;
48215;SDS011;34005;48.844;10.098;2024-02-21T05:46:45;11.65;;;5.50;;
48215;SDS011;34005;48.844;10.098;2024-02-21T05:49:14;8.65;;;3.72;;
48215;SDS011;34005;48.844;10.098;2024-02-21T05:51:42;13.38;;;5.05;;
48215;SDS011;34005;48.844;10.098;2024-02-21T05:54:10;9.65;;;3.92;;
48215;SDS011;34005;48.844;10.098;2024-02-21T05:56:37;11.85;;;4.78;;
48215;SDS011;34005;48.844;10.098;2024-02-21T05:59:05;7.53;;;4.60;;
48215;SDS011;34005;48.844;10.098;2024-02-21T06:01:33;7.38;;;3.65;;
48215;SDS011;34005;48.844;10.098;2024-02-21T06:04:00;7.55;;;4.25;;
48215;SDS011;34005;48.844;10.098;2024-02-21T06:06:29;13.32;;;5.30;;
48215;SDS011;34005;48.844;10.098;2024-02-21T06:08:57;8.98;;;4.97;;
48215;SDS011;34005;48.844;10.098;2024-02-21T06:11:25;12.45;;;6.28;;
48215;SDS011;34005;48.844;10.098;2024-02-21T06:13:53;16.98;;;7.20;;
48215;SDS011;34005;48.844;10.098;2024-02-21T06:16:21;13.60;;;6.13;;
48215;SDS011;34005;48.844;10.098;2024-02-21T06:18:48;17.10;;;6.80;;
48215;SDS011;34005;48.844;10.098;2024-02-21T06:21:16;12.95;;;7.00;;
48215;SDS011;34005;48.844;10.098;2024-02-21T06:23:45;12.38;;;6.05;;
48215;SDS011;34005;48.844;10.098;2024-02-21T06:26:13;12.57;;;6.30;;
48215;SDS011;34005;48.844;10.098;2024-02-21T06:28:40;11.48;;;5.57;;
48215;SDS011;34005;48.844;10.098;2024-02-21T06:31:09;12.40;;;6.05;;
48215;SDS011;34005;48.844;10.098;2024-02-21T06:33:36;12.38;;;5.30;;
48215;SDS011;34005;48.844;10.098;2024-02-21T06:36:04;12.23;;;4.18;;
48215;SDS011;34005;48.844;10.098;2024-02-21T06:38:32;14.02;;;5.82;;
48215;SDS011;34005;48.844;10.098;2024-02-21T06:41:02;11.57;;;4.75;;
48215;SDS011;34005;48.844;10.098;2024-02-21T06:43:30;10.05;;;4.70;;
48215;SDS011;34005;48.844;10.098;2024-02-21T06:45:59;10.32;;;4.30;;
48215;SDS011;34005;48.844;10.098;2024-02-21T06:48:27;8.65;;;3.80;;
48215;SDS011;34005;48.844;10.098;2024-02-21T06:50:54;10.10;;;4.50;;
48215;SDS011;34005;48.844;10.098;2024-02-21T06:53:22;8.50;;;3.42;;
48215;SDS011;34005;48.844;10.098;2024-02-21T06:55:50;7.22;;;3.35;;
48215;SDS011;34005;48.844;10.098;2024-02-21T06:58:19;7.50;;;3.83;;
48215;SDS011;34005;48.844;10.098;2024-02-21T07:00:46;7.75;;;3.83;;
48215;SDS011;34005;48.844;10.098;2024-02-21T07:03:14;8.05;;;4.40;;
48215;SDS011;34005;48.844;10.098;2024-02-21T07:05:42;8.65;;;3.88;;
48215;SDS011;34005;48.844;10.098;2024-02-21T07:08:09;8.07;;;4.13;;
48215;SDS011;34005;48.844;10.098;2024-02-21T07:10:37;9.43;;;3.83;;
48215;SDS011;34005;48.844;10.098;2024-02-21T07:13:05;7.55;;;3.75;;
48215;SDS011;34005;48.844;10.098;2024-02-21T07:15:34;7.97;;;4.63;;
48215;SDS011;34005;48.844;10.098;2024-02-21T07:18:02;9.90;;;5.20;;
48215;SDS011;34005;48.844;10.098;2024-02-21T07:20:30;12.45;;;4.57;;
48215;SDS011;34005;48.844;10.098;2024-02-21T07:22:59;9.15;;;4.00;;
48215;SDS011;34005;48.844;10.098;2024-02-21T07:25:27;10.35;;;3.95;;
48215;SDS011;34005;48.844;10.098;2024-02-21T07:27:55;9.40;;;4.78;;
48215;SDS011;34005;48.844;10.098;2024-02-21T07:30:23;10.27;;;4.38;;
48215;SDS011;34005;48.844;10.098;2024-02-21T07:32:52;11.85;;;4.40;;
48215;SDS011;34005;48.844;10.098;2024-02-21T07:35:20;9.88;;;3.47;;
48215;SDS011;34005;48.844;10.098;2024-02-21T07:37:48;6.40;;;4.13;;
48215;SDS011;34005;48.844;10.098;2024-02-21T07:40:16;9.55;;;4.20;;
48215;SDS011;34005;48.844;10.098;2024-02-21T07:42:44;7.43;;;3.97;;
48215;SDS011;34005;48.844;10.098;2024-02-21T07:45:17;8.27;;;3.67;;
48215;SDS011;34005;48.844;10.098;2024-02-21T07:47:48;12.15;;;4.50;;
48215;SDS011;34005;48.844;10.098;2024-02-21T07:50:17;10.07;;;4.50;;
48215;SDS011;34005;48.844;10.098;2024-02-21T07:52:45;8.13;;;3.90;;
48215;SDS011;34005;48.844;10.098;2024-02-21T07:55:12;10.38;;;4.13;;
48215;SDS011;34005;48.844;10.098;2024-02-21T07:57:40;6.80;;;3.65;;
48215;SDS011;34005;48.844;10.098;2024-02-21T08:00:08;11.43;;;4.03;;
48215;SDS011;34005;48.844;10.098;2024-02-21T08:02:41;10.05;;;3.45;;
48215;SDS011;34005;48.844;10.098;2024-02-21T08:05:10;6.82;;;3.67;;
48215;SDS011;34005;48.844;10.098;2024-02-21T08:07:40;6.97;;;3.38;;
48215;SDS011;34005;48.844;10.098;2024-02-21T08:10:08;6.38;;;3.92;;
48215;SDS011;34005;48.844;10.098;2024-02-21T08:12:36;7.43;;;3.35;;
48215;SDS011;34005;48.844;10.098;2024-02-21T08:15:04;6.10;;;3.40;;
48215;SDS011;34005;48.844;10.098;2024-02-21T08:17:34;8.38;;;3.08;;
48215;SDS011;34005;48.844;10.098;2024-02-21T08:20:02;8.05;;;3.35;;
48215;SDS011;34005;48.844;10.098;2024-02-21T08:22:30;6.75;;;2.72;;
48215;SDS011;34005;48.844;10.098;2024-02-21T08:24:59;4.82;;;2.67;;
48215;SDS011;34005;48.844;10.098;2024-02-21T08:27:27;6.85;;;2.53;;
48215;SDS011;34005;48.844;10.098;2024-02-21T08:29:55;10.85;;;3.17;;
48215;SDS011;34005;48.844;10.098;2024-02-21T08:32:22;4.40;;;2.63;;
48215;SDS011;34005;48.844;10.098;2024-02-21T08:34:50;9.02;;;3.38;;
48215;SDS011;34005;48.844;10.098;2024-02-21T08:37:18;10.10;;;3.80;;
48215;SDS011;34005;48.844;10.098;2024-02-21T08:39:47;7.50;;;3.40;;
48215;SDS011;34005;48.844;10.098;2024-02-21T08:42:17;7.75;;;3.55;;
48215;SDS011;34005;48.844;10.098;2024-02-21T08:44:44;8.73;;;3.20;;
48215;SDS011;34005;48.844;10.098;2024-02-21T08:47:12;6.85;;;3.22;;
48215;SDS011;34005;48.844;10.098;2024-02-21T08:49:40;8.80;;;3.63;;
48215;SDS011;34005;48.844;10.098;2024-02-21T08:52:08;8.07;;;3.60;;
48215;SDS011;34005;48.844;10.098;2024-02-21T08:54:35;11.70;;;3.42;;
48215;SDS011;34005;48.844;10.098;2024-02-21T08:57:03;8.85;;;3.00;;
48215;SDS011;34005;48.844;10.098;2024-02-21T08:59:32;7.43;;;2.30;;
48215;SDS011;34005;48.844;10.098;2024-02-21T09:02:01;5.60;;;1.80;;
48215;SDS011;34005;48.844;10.098;2024-02-21T09:04:30;5.78;;;1.55;;
48215;SDS011;34005;48.844;10.098;2024-02-21T09:06:58;4.55;;;1.80;;
48215;SDS011;34005;48.844;10.098;2024-02-21T09:09:26;3.30;;;1.50;;
48215;SDS011;34005;48.844;10.098;2024-02-21T09:11:55;6.38;;;1.90;;
48215;SDS011;34005;48.844;10.098;2024-02-21T09:14:24;5.40;;;1.52;;
48215;SDS011;34005;48.844;10.098;2024-02-21T09:16:53;3.63;;;1.42;;
48215;SDS011;34005;48.844;10.098;2024-02-21T09:19:22;5.90;;;1.77;;
48215;SDS011;34005;48.844;10.098;2024-02-21T09:21:50;3.20;;;1.30;;
48215;SDS011;34005;48.844;10.098;2024-02-21T09:24:18;5.43;;;1.42;;
48215;SDS011;34005;48.844;10.098;2024-02-21T09:26:46;4.55;;;1.55;;
48215;SDS011;34005;48.844;10.098;2024-02-21T09:29:13;4.50;;;1.25;;
48215;SDS011;34005;48.844;10.098;2024-02-21T09:31:43;6.03;;;1.73;;
48215;SDS011;34005;48.844;10.098;2024-02-21T09:34:18;2.83;;;1.67;;
48215;SDS011;34005;48.844;10.098;2024-02-21T09:36:48;3.78;;;1.30;;
48215;SDS011;34005;48.844;10.098;2024-02-21T09:39:16;3.80;;;1.30;;
48215;SDS011;34005;48.844;10.098;2024-02-21T09:41:45;6.32;;;2.30;;
48215;SDS011;34005;48.844;10.098;2024-02-21T09:44:21;4.97;;;1.40;;
48215;SDS011;34005;48.844;10.098;2024-02-21T09:46:52;4.95;;;2.00;;
48215;SDS011;34005;48.844;10.098;2024-02-21T09:49:29;4.95;;;1.58;;
48215;SDS011;34005;48.844;10.098;2024-02-21T09:52:00;6.07;;;1.90;;
48215;SDS011;34005;48.844;10.098;2024-02-21T09:54:30;6.63;;;2.22;;
48215;SDS011;34005;48.844;10.098;2024-02-21T09:56:58;8.02;;;2.28;;
48215;SDS011;34005;48.844;10.098;2024-02-21T09:59:27;5.47;;;1.90;;
48215;SDS011;34005;48.844;10.098;2024-02-21T10:01:56;5.70;;;2.15;;
48215;SDS011;34005;48.844;10.098;2024-02-21T10:04:31;9.68;;;2.35;;
48215;SDS011;34005;48.844;10.098;2024-02-21T10:06:59;2.88;;;1.42;;
48215;SDS011;34005;48.844;10.098;2024-02-21T10:09:27;5.63;;;2.08;;
48215;SDS011;34005;48.844;10.098;2024-02-21T10:12:06;4.07;;;1.75;;
48215;SDS011;34005;48.844;10.098;2024-02-21T10:14:35;4.53;;;1.80;;
48215;SDS011;34005;48.844;10.098;2024-02-21T10:17:03;5.25;;;2.00;;
48215;SDS011;34005;48.844;10.098;2024-02-21T10:19:37;5.32;;;1.90;;
48215;SDS011;34005;48.844;10.098;2024-02-21T10:22:07;3.70;;;1.67;;
48215;SDS011;34005;48.844;10.098;2024-02-21T10:24:36;5.50;;;2.08;;
48215;SDS011;34005;48.844;10.098;2024-02-21T10:27:08;5.60;;;1.83;;
48215;SDS011;34005;48.844;10.098;2024-02-21T10:29:39;4.30;;;1.58;;
48215;SDS011;34005;48.844;10.098;2024-02-21T10:32:07;5.57;;;1.70;;
48215;SDS011;34005;48.844;10.098;2024-02-21T10:34:38;3.15;;;1.30;;
48215;SDS011;34005;48.844;10.098;2024-02-21T10:37:09;5.30;;;1.73;;
48215;SDS011;34005;48.844;10.098;2024-02-21T10:39:38;7.82;;;2.20;;
48215;SDS011;34005;48.844;10.098;2024-02-21T10:42:07;5.40;;;1.42;;
48215;SDS011;34005;48.844;10.098;2024-02-21T10:44:38;4.18;;;1.48;;
48215;SDS011;34005;48.844;10.098;2024-02-21T10:47:08;5.57;;;1.48;;
48215;SDS011;34005;48.844;10.098;2024-02-21T10:49:39;4.85;;;1.67;;
48215;SDS011;34005;48.844;10.098;2024-02-21T10:52:13;4.05;;;1.30;;
48215;SDS011;34005;48.844;10.098;2024-02-21T10:54:44;4.88;;;1.67;;
48215;SDS011;34005;48.844;10.098;2024-02-21T10:57:16;2.95;;;1.35;;
48215;SDS011;34005;48.844;10.098;2024-02-21T10:59:44;2.72;;;1.30;;
48215;SDS011;34005;48.844;10.098;2024-02-21T11:02:12;4.60;;;1.23;;
48215;SDS011;34005;48.844;10.098;2024-02-21T11:04:42;5.47;;;1.40;;
48215;SDS011;34005;48.844;10.098;2024-02-21T11:07:12;4.03;;;1.50;;
48215;SDS011;34005;48.844;10.098;2024-02-21T11:09:50;5.43;;;1.40;;
48215;SDS011;34005;48.844;10.098;2024-02-21T11:12:26;3.53;;;1.58;;
48215;SDS011;34005;48.844;10.098;2024-02-21T11:15:03;3.53;;;1.58;;
48215;SDS011;34005;48.844;10.098;2024-02-21T11:17:32;4.10;;;1.38;;
48215;SDS011;34005;48.844;10.098;2024-02-21T11:20:11;4.82;;;1.40;;
48215;SDS011;34005;48.844;10.098;2024-02-21T11:25:08;4.18;;;1.25;;
48215;SDS011;34005;48.844;10.098;2024-02-21T11:27:38;5.78;;;1.67;;
48215;SDS011;34005;48.844;10.098;2024-02-21T11:30:11;2.90;;;1.15;;
48215;SDS011;34005;48.844;10.098;2024-02-21T11:32:40;4.50;;;1.52;;
48215;SDS011;34005;48.844;10.098;2024-02-21T11:35:08;3.35;;;1.13;;
48215;SDS011;34005;48.844;10.098;2024-02-21T11:37:48;2.83;;;1.20;;
48215;SDS011;34005;48.844;10.098;2024-02-21T11:45:45;2.40;;;1.30;;
48215;SDS011;34005;48.844;10.098;2024-02-21T11:48:14;2.50;;;1.33;;
48215;SDS011;34005;48.844;10.098;2024-02-21T11:50:52;4.55;;;1.20;;
48215;SDS011;34005;48.844;10.098;2024-02-21T11:53:21;2.67;;;1.00;;
48215;SDS011;34005;48.844;10.098;2024-02-21T11:55:49;5.07;;;1.48;;
48215;SDS011;34005;48.844;10.098;2024-02-21T11:58:17;2.25;;;1.50;;
48215;SDS011;34005;48.844;10.098;2024-02-21T12:00:44;3.33;;;1.40;;
48215;SDS011;34005;48.844;10.098;2024-02-21T12:03:12;3.42;;;1.40;;
48215;SDS011;34005;48.844;10.098;2024-02-21T12:05:40;4.18;;;1.50;;
48215;SDS011;34005;48.844;10.098;2024-02-21T12:08:09;2.17;;;1.02;;
48215;SDS011;34005;48.844;10.098;2024-02-21T12:10:37;4.32;;;1.52;;
48215;SDS011;34005;48.844;10.098;2024-02-21T12:13:05;5.22;;;1.10;;
48215;SDS011;34005;48.844;10.098;2024-02-21T12:15:34;4.45;;;1.23;;
48215;SDS011;34005;48.844;10.098;2024-02-21T12:18:02;2.85;;;1.40;;
48215;SDS011;34005;48.844;10.098;2024-02-21T12:20:30;4.88;;;1.52;;
48215;SDS011;34005;48.844;10.098;2024-02-21T12:22:59;4.13;;;1.83;;
48215;SDS011;34005;48.844;10.098;2024-02-21T12:25:29;4.05;;;1.40;;
48215;SDS011;34005;48.844;10.098;2024-02-21T12:27:57;4.93;;;1.35;;
48215;SDS011;34005;48.844;10.098;2024-02-21T12:30:26;4.80;;;1.55;;
48215;SDS011;34005;48.844;10.098;2024-02-21T12:32:53;3.90;;;1.40;;
48215;SDS011;34005;48.844;10.098;2024-02-21T12:35:21;4.90;;;1.75;;
48215;SDS011;34005;48.844;10.098;2024-02-21T12:37:49;3.05;;;1.45;;
48215;SDS011;34005;48.844;10.098;2024-02-21T12:40:17;4.90;;;1.50;;
48215;SDS011;34005;48.844;10.098;2024-02-21T12:42:46;3.85;;;1.27;;
48215;SDS011;34005;48.844;10.098;2024-02-21T12:45:14;3.72;;;1.58;;
48215;SDS011;34005;48.844;10.098;2024-02-21T12:47:42;3.13;;;1.27;;
48215;SDS011;34005;48.844;10.098;2024-02-21T12:50:10;4.45;;;1.88;;
48215;SDS011;34005;48.844;10.098;2024-02-21T12:52:38;5.07;;;1.88;;
48215;SDS011;34005;48.844;10.098;2024-02-21T12:55:05;4.20;;;1.88;;
48215;SDS011;34005;48.844;10.098;2024-02-21T12:57:36;3.28;;;1.38;;
48215;SDS011;34005;48.844;10.098;2024-02-21T13:00:06;3.47;;;1.40;;
48215;SDS011;34005;48.844;10.098;2024-02-21T13:02:35;4.35;;;1.98;;
48215;SDS011;34005;48.844;10.098;2024-02-21T13:05:05;5.22;;;1.55;;
48215;SDS011;34005;48.844;10.098;2024-02-21T13:07:34;3.10;;;1.20;;
48215;SDS011;34005;48.844;10.098;2024-02-21T13:10:01;10.30;;;1.60;;
48215;SDS011;34005;48.844;10.098;2024-02-21T13:12:31;3.97;;;1.50;;
48215;SDS011;34005;48.844;10.098;2024-02-21T13:14:59;4.68;;;1.17;;
48215;SDS011;34005;48.844;10.098;2024-02-21T13:17:28;3.83;;;1.38;;
48215;SDS011;34005;48.844;10.098;2024-02-21T13:19:58;3.15;;;1.05;;
48215;SDS011;34005;48.844;10.098;2024-02-21T13:22:26;5.88;;;1.95;;
48215;SDS011;34005;48.844;10.098;2024-02-21T13:24:54;6.22;;;1.38;;
48215;SDS011;34005;48.844;10.098;2024-02-21T13:27:24;6.60;;;1.27;;
48215;SDS011;34005;48.844;10.098;2024-02-21T13:29:51;4.95;;;1.33;;
48215;SDS011;34005;48.844;10.098;2024-02-21T13:32:19;3.63;;;1.30;;
48215;SDS011;34005;48.844;10.098;2024-02-21T13:34:48;7.88;;;1.35;;
48215;SDS011;34005;48.844;10.098;2024-02-21T13:37:18;4.68;;;1.92;;
48215;SDS011;34005;48.844;10.098;2024-02-21T13:39:48;3.30;;;1.13;;
48215;SDS011;34005;48.844;10.098;2024-02-21T13:42:16;4.18;;;1.00;;
48215;SDS011;34005;48.844;10.098;2024-02-21T13:44:43;4.13;;;1.30;;
48215;SDS011;34005;48.844;10.098;2024-02-21T13:47:11;3.08;;;1.70;;
48215;SDS011;34005;48.844;10.098;2024-02-21T13:49:41;4.78;;;1.27;;
48215;SDS011;34005;48.844;10.098;2024-02-21T13:52:10;5.85;;;1.27;;
48215;SDS011;34005;48.844;10.098;2024-02-21T13:54:38;4.68;;;1.88;;
48215;SDS011;34005;48.844;10.098;2024-02-21T13:57:05;3.35;;;1.10;;
48215;SDS011;34005;48.844;10.098;2024-02-21T13:59:32;5.63;;;1.42;;
48215;SDS011;34005;48.844;10.098;2024-02-21T14:02:00;2.00;;;0.90;;
48215;SDS011;34005;48.844;10.098;2024-02-21T14:04:27;2.30;;;0.85;;
48215;SDS011;34005;48.844;10.098;2024-02-21T14:06:56;3.22;;;1.30;;
48215;SDS011;34005;48.844;10.098;2024-02-21T14:09:25;4.22;;;1.50;;
48215;SDS011;34005;48.844;10.098;2024-02-21T14:11:54;5.18;;;1.60;;
48215;SDS011;34005;48.844;10.098;2024-02-21T14:14:21;5.25;;;1.65;;
48215;SDS011;34005;48.844;10.098;2024-02-21T14:16:49;3.88;;;1.60;;
48215;SDS011;34005;48.844;10.098;2024-02-21T14:19:17;3.40;;;1.40;;
48215;SDS011;34005;48.844;10.098;2024-02-21T14:21:45;4.03;;;1.27;;
48215;SDS011;34005;48.844;10.098;2024-02-21T14:24:12;4.13;;;1.08;;
48215;SDS011;34005;48.844;10.098;2024-02-21T14:26:41;4.85;;;1.10;;
48215;SDS011;34005;48.844;10.098;2024-02-21T14:29:09;2.55;;;0.95;;
48215;SDS011;34005;48.844;10.098;2024-02-21T14:31:39;5.13;;;1.40;;
48215;SDS011;34005;48.844;10.098;2024-02-21T14:34:06;3.45;;;1.73;;
48215;SDS011;34005;48.844;10.098;2024-02-21T14:36:34;4.10;;;1.30;;
48215;SDS011;34005;48.844;10.098;2024-02-21T14:39:02;3.92;;;1.30;;
48215;SDS011;34005;48.844;10.098;2024-02-21T14:41:31;3.22;;;1.50;;
48215;SDS011;34005;48.844;10.098;2024-02-21T14:43:59;2.20;;;1.02;;
48215;SDS011;34005;48.844;10.098;2024-02-21T14:46:30;5.93;;;1.42;;
48215;SDS011;34005;48.844;10.098;2024-02-21T14:48:58;3.88;;;1.55;;
48215;SDS011;34005;48.844;10.098;2024-02-21T14:51:25;5.40;;;1.00;;